sensor_id;sensor_type;location;lat;lon;timestamp;P1;durP1;ratioP1;P2;durP2;ratioP2
12878;SDS011;20617;49.476;10.986;2022-12-07T00:00:12;8.50;;;6.88;;
12878;SDS011;20617;49.476;10.986;2022-12-07T00:02:18;8.30;;;7.18;;
12878;SDS011;20617;49.476;10.986;2022-12-07T00:04:24;8.55;;;6.93;;
12878;SDS011;20617;49.476;10.986;2022-12-07T00:06:29;9.60;;;7.35;;
12878;SDS011;20617;49.476;10.986;2022-12-07T00:08:35;9.32;;;7.50;;
12878;SDS011;20617;49.476;10.986;2022-12-07T00:10:40;7.95;;;6.90;;
12878;SDS011;20617;49.476;10.986;2022-12-07T00:12:48;8.52;;;6.78;;
12878;SDS011;20617;49.476;10.986;2022-12-07T00:14:52;8.20;;;7.15;;
12878;SDS011;20617;49.476;10.986;2022-12-07T00:16:57;12.27;;;7.18;;
12878;SDS011;20617;49.476;10.986;2022-12-07T00:19:03;8.60;;;7.10;;
12878;SDS011;20617;49.476;10.986;2022-12-07T00:21:09;8.55;;;7.50;;
12878;SDS011;20617;49.476;10.986;2022-12-07T00:23:16;8.00;;;7.10;;
12878;SDS011;20617;49.476;10.986;2022-12-07T00:25:22;10.05;;;8.07;;
12878;SDS011;20617;49.476;10.986;2022-12-07T00:27:27;9.23;;;8.05;;
12878;SDS011;20617;49.476;10.986;2022-12-07T00:29:35;9.00;;;7.50;;
12878;SDS011;20617;49.476;10.986;2022-12-07T00:31:40;10.90;;;7.90;;
12878;SDS011;20617;49.476;10.986;2022-12-07T00:33:45;10.35;;;7.75;;
12878;SDS011;20617;49.476;10.986;2022-12-07T00:35:54;19.35;;;13.43;;
12878;SDS011;20617;49.476;10.986;2022-12-07T00:37:59;14.73;;;10.82;;
12878;SDS011;20617;49.476;10.986;2022-12-07T00:40:05;11.93;;;8.60;;
12878;SDS011;20617;49.476;10.986;2022-12-07T00:42:11;10.15;;;8.07;;
12878;SDS011;20617;49.476;10.986;2022-12-07T00:44:15;9.82;;;8.15;;
12878;SDS011;20617;49.476;10.986;2022-12-07T00:46:23;9.43;;;7.50;;
12878;SDS011;20617;49.476;10.986;2022-12-07T00:48:29;11.30;;;8.75;;
12878;SDS011;20617;49.476;10.986;2022-12-07T00:50:34;9.30;;;7.82;;
12878;SDS011;20617;49.476;10.986;2022-12-07T00:52:39;10.88;;;8.45;;
12878;SDS011;20617;49.476;10.986;2022-12-07T00:54:43;10.45;;;8.52;;
12878;SDS011;20617;49.476;10.986;2022-12-07T00:56:53;10.23;;;8.15;;
12878;SDS011;20617;49.476;10.986;2022-12-07T00:58:58;9.23;;;8.00;;
12878;SDS011;20617;49.476;10.986;2022-12-07T01:01:04;10.75;;;8.88;;
12878;SDS011;20617;49.476;10.986;2022-12-07T01:03:14;10.18;;;7.70;;
12878;SDS011;20617;49.476;10.986;2022-12-07T01:05:20;11.98;;;8.93;;
12878;SDS011;20617;49.476;10.986;2022-12-07T01:07:25;12.77;;;8.60;;
12878;SDS011;20617;49.476;10.986;2022-12-07T01:09:29;11.20;;;8.57;;
12878;SDS011;20617;49.476;10.986;2022-12-07T01:11:34;11.43;;;8.93;;
12878;SDS011;20617;49.476;10.986;2022-12-07T01:13:39;11.73;;;9.45;;
12878;SDS011;20617;49.476;10.986;2022-12-07T01:15:44;10.80;;;8.85;;
12878;SDS011;20617;49.476;10.986;2022-12-07T01:17:49;10.88;;;9.45;;
12878;SDS011;20617;49.476;10.986;2022-12-07T01:19:58;11.65;;;8.98;;
12878;SDS011;20617;49.476;10.986;2022-12-07T01:22:03;13.35;;;9.05;;
12878;SDS011;20617;49.476;10.986;2022-12-07T01:24:09;10.45;;;8.23;;
12878;SDS011;20617;49.476;10.986;2022-12-07T01:26:15;11.70;;;9.77;;
12878;SDS011;20617;49.476;10.986;2022-12-07T01:28:22;11.18;;;9.15;;
12878;SDS011;20617;49.476;10.986;2022-12-07T01:30:27;9.73;;;8.65;;
12878;SDS011;20617;49.476;10.986;2022-12-07T01:32:32;11.05;;;8.32;;
12878;SDS011;20617;49.476;10.986;2022-12-07T01:34:38;10.32;;;8.70;;
12878;SDS011;20617;49.476;10.986;2022-12-07T01:36:45;13.23;;;9.07;;
12878;SDS011;20617;49.476;10.986;2022-12-07T01:38:54;13.23;;;9.10;;
12878;SDS011;20617;49.476;10.986;2022-12-07T01:41:01;9.90;;;8.35;;
12878;SDS011;20617;49.476;10.986;2022-12-07T01:43:09;11.13;;;9.38;;
12878;SDS011;20617;49.476;10.986;2022-12-07T01:45:31;11.65;;;8.98;;
12878;SDS011;20617;49.476;10.986;2022-12-07T01:47:42;12.50;;;9.63;;
12878;SDS011;20617;49.476;10.986;2022-12-07T01:49:53;13.13;;;10.43;;
12878;SDS011;20617;49.476;10.986;2022-12-07T01:52:01;13.43;;;11.05;;
12878;SDS011;20617;49.476;10.986;2022-12-07T01:54:14;11.98;;;10.07;;
12878;SDS011;20617;49.476;10.986;2022-12-07T01:56:22;13.10;;;9.98;;
12878;SDS011;20617;49.476;10.986;2022-12-07T01:58:30;12.50;;;9.80;;
12878;SDS011;20617;49.476;10.986;2022-12-07T02:00:36;12.80;;;10.32;;
12878;SDS011;20617;49.476;10.986;2022-12-07T02:02:41;12.55;;;9.55;;
12878;SDS011;20617;49.476;10.986;2022-12-07T02:04:50;12.68;;;9.80;;
12878;SDS011;20617;49.476;10.986;2022-12-07T02:06:56;11.65;;;9.63;;
12878;SDS011;20617;49.476;10.986;2022-12-07T02:09:04;11.88;;;9.48;;
12878;SDS011;20617;49.476;10.986;2022-12-07T02:11:10;15.02;;;11.73;;
12878;SDS011;20617;49.476;10.986;2022-12-07T02:13:15;13.63;;;10.73;;
12878;SDS011;20617;49.476;10.986;2022-12-07T02:15:24;13.05;;;10.45;;
12878;SDS011;20617;49.476;10.986;2022-12-07T02:17:35;13.13;;;11.00;;
12878;SDS011;20617;49.476;10.986;2022-12-07T02:19:56;12.13;;;9.93;;
12878;SDS011;20617;49.476;10.986;2022-12-07T02:22:14;14.85;;;10.63;;
12878;SDS011;20617;49.476;10.986;2022-12-07T02:24:41;12.77;;;10.25;;
12878;SDS011;20617;49.476;10.986;2022-12-07T02:29:34;13.63;;;10.75;;
12878;SDS011;20617;49.476;10.986;2022-12-07T02:31:49;16.33;;;11.60;;
12878;SDS011;20617;49.476;10.986;2022-12-07T02:34:01;16.98;;;11.40;;
12878;SDS011;20617;49.476;10.986;2022-12-07T02:36:16;13.63;;;10.45;;
12878;SDS011;20617;49.476;10.986;2022-12-07T02:38:26;15.95;;;11.63;;
12878;SDS011;20617;49.476;10.986;2022-12-07T02:40:36;14.00;;;10.00;;
12878;SDS011;20617;49.476;10.986;2022-12-07T02:42:47;14.60;;;11.43;;
12878;SDS011;20617;49.476;10.986;2022-12-07T02:44:59;13.00;;;10.68;;
12878;SDS011;20617;49.476;10.986;2022-12-07T02:47:06;13.40;;;10.77;;
12878;SDS011;20617;49.476;10.986;2022-12-07T02:49:14;13.57;;;10.85;;
12878;SDS011;20617;49.476;10.986;2022-12-07T02:51:21;14.65;;;10.77;;
12878;SDS011;20617;49.476;10.986;2022-12-07T02:53:30;14.88;;;11.95;;
12878;SDS011;20617;49.476;10.986;2022-12-07T02:55:37;15.00;;;11.20;;
12878;SDS011;20617;49.476;10.986;2022-12-07T02:57:49;15.02;;;11.15;;
12878;SDS011;20617;49.476;10.986;2022-12-07T03:00:09;15.05;;;12.10;;
12878;SDS011;20617;49.476;10.986;2022-12-07T03:02:17;14.95;;;11.45;;
12878;SDS011;20617;49.476;10.986;2022-12-07T03:04:33;14.05;;;10.73;;
12878;SDS011;20617;49.476;10.986;2022-12-07T03:06:48;13.93;;;10.93;;
12878;SDS011;20617;49.476;10.986;2022-12-07T03:08:57;13.70;;;11.98;;
12878;SDS011;20617;49.476;10.986;2022-12-07T03:11:14;12.50;;;10.18;;
12878;SDS011;20617;49.476;10.986;2022-12-07T03:13:23;12.13;;;9.50;;
12878;SDS011;20617;49.476;10.986;2022-12-07T03:15:38;14.50;;;10.82;;
12878;SDS011;20617;49.476;10.986;2022-12-07T03:17:47;14.82;;;11.50;;
12878;SDS011;20617;49.476;10.986;2022-12-07T03:19:57;14.25;;;11.50;;
12878;SDS011;20617;49.476;10.986;2022-12-07T03:22:05;13.35;;;10.32;;
12878;SDS011;20617;49.476;10.986;2022-12-07T03:24:14;13.73;;;10.98;;
12878;SDS011;20617;49.476;10.986;2022-12-07T03:26:21;12.02;;;10.25;;
12878;SDS011;20617;49.476;10.986;2022-12-07T03:28:36;14.77;;;10.80;;
12878;SDS011;20617;49.476;10.986;2022-12-07T03:30:51;13.38;;;11.05;;
12878;SDS011;20617;49.476;10.986;2022-12-07T03:33:01;12.88;;;10.45;;
12878;SDS011;20617;49.476;10.986;2022-12-07T03:35:12;13.68;;;10.30;;
12878;SDS011;20617;49.476;10.986;2022-12-07T03:37:22;11.77;;;9.73;;
12878;SDS011;20617;49.476;10.986;2022-12-07T03:39:34;10.75;;;9.48;;
12878;SDS011;20617;49.476;10.986;2022-12-07T03:41:43;16.23;;;11.25;;
12878;SDS011;20617;49.476;10.986;2022-12-07T03:43:54;14.45;;;10.93;;
12878;SDS011;20617;49.476;10.986;2022-12-07T03:46:04;13.45;;;11.10;;
12878;SDS011;20617;49.476;10.986;2022-12-07T03:48:16;14.00;;;12.05;;
12878;SDS011;20617;49.476;10.986;2022-12-07T03:50:31;13.77;;;10.90;;
12878;SDS011;20617;49.476;10.986;2022-12-07T03:52:42;14.02;;;10.63;;
12878;SDS011;20617;49.476;10.986;2022-12-07T03:54:53;13.70;;;11.52;;
12878;SDS011;20617;49.476;10.986;2022-12-07T03:57:04;16.55;;;12.60;;
12878;SDS011;20617;49.476;10.986;2022-12-07T03:59:10;17.00;;;12.60;;
12878;SDS011;20617;49.476;10.986;2022-12-07T04:01:20;15.60;;;11.20;;
12878;SDS011;20617;49.476;10.986;2022-12-07T04:03:25;14.25;;;11.38;;
12878;SDS011;20617;49.476;10.986;2022-12-07T04:05:29;13.70;;;10.90;;
12878;SDS011;20617;49.476;10.986;2022-12-07T04:07:34;14.60;;;11.07;;
12878;SDS011;20617;49.476;10.986;2022-12-07T04:09:39;14.55;;;11.30;;
12878;SDS011;20617;49.476;10.986;2022-12-07T04:11:46;14.88;;;10.55;;
12878;SDS011;20617;49.476;10.986;2022-12-07T04:13:51;17.73;;;13.30;;
12878;SDS011;20617;49.476;10.986;2022-12-07T04:16:08;15.73;;;12.57;;
12878;SDS011;20617;49.476;10.986;2022-12-07T04:18:16;17.77;;;11.88;;
12878;SDS011;20617;49.476;10.986;2022-12-07T04:20:20;15.32;;;12.35;;
12878;SDS011;20617;49.476;10.986;2022-12-07T04:22:25;15.95;;;12.48;;
12878;SDS011;20617;49.476;10.986;2022-12-07T04:24:30;17.15;;;12.98;;
12878;SDS011;20617;49.476;10.986;2022-12-07T04:26:36;16.65;;;13.10;;
12878;SDS011;20617;49.476;10.986;2022-12-07T04:28:40;17.20;;;13.80;;
12878;SDS011;20617;49.476;10.986;2022-12-07T04:30:46;16.08;;;12.50;;
12878;SDS011;20617;49.476;10.986;2022-12-07T04:32:51;17.63;;;14.52;;
12878;SDS011;20617;49.476;10.986;2022-12-07T04:34:58;16.50;;;12.70;;
12878;SDS011;20617;49.476;10.986;2022-12-07T04:37:03;17.70;;;11.75;;
12878;SDS011;20617;49.476;10.986;2022-12-07T04:39:18;14.68;;;13.10;;
12878;SDS011;20617;49.476;10.986;2022-12-07T04:41:25;15.80;;;12.80;;
12878;SDS011;20617;49.476;10.986;2022-12-07T04:43:31;15.65;;;12.48;;
12878;SDS011;20617;49.476;10.986;2022-12-07T04:45:36;15.88;;;12.98;;
12878;SDS011;20617;49.476;10.986;2022-12-07T04:47:41;15.93;;;12.70;;
12878;SDS011;20617;49.476;10.986;2022-12-07T04:49:46;16.15;;;13.00;;
12878;SDS011;20617;49.476;10.986;2022-12-07T04:51:53;17.08;;;12.52;;
12878;SDS011;20617;49.476;10.986;2022-12-07T04:53:58;17.85;;;13.80;;
12878;SDS011;20617;49.476;10.986;2022-12-07T04:56:03;15.88;;;12.57;;
12878;SDS011;20617;49.476;10.986;2022-12-07T05:00:13;16.75;;;11.70;;
12878;SDS011;20617;49.476;10.986;2022-12-07T05:04:22;16.40;;;13.27;;
12878;SDS011;20617;49.476;10.986;2022-12-07T05:06:27;17.50;;;12.75;;
12878;SDS011;20617;49.476;10.986;2022-12-07T05:08:35;13.60;;;11.77;;
12878;SDS011;20617;49.476;10.986;2022-12-07T05:10:43;14.68;;;11.98;;
12878;SDS011;20617;49.476;10.986;2022-12-07T05:12:48;15.13;;;12.10;;
12878;SDS011;20617;49.476;10.986;2022-12-07T05:14:53;18.10;;;13.98;;
12878;SDS011;20617;49.476;10.986;2022-12-07T05:16:57;17.75;;;13.15;;
12878;SDS011;20617;49.476;10.986;2022-12-07T05:19:02;16.38;;;13.27;;
12878;SDS011;20617;49.476;10.986;2022-12-07T05:21:08;19.40;;;14.40;;
12878;SDS011;20617;49.476;10.986;2022-12-07T05:23:13;15.88;;;13.27;;
12878;SDS011;20617;49.476;10.986;2022-12-07T05:25:20;17.45;;;14.25;;
12878;SDS011;20617;49.476;10.986;2022-12-07T05:27:25;14.60;;;12.27;;
12878;SDS011;20617;49.476;10.986;2022-12-07T05:29:30;16.77;;;13.35;;
12878;SDS011;20617;49.476;10.986;2022-12-07T05:31:35;19.10;;;14.23;;
12878;SDS011;20617;49.476;10.986;2022-12-07T05:33:39;14.38;;;11.82;;
12878;SDS011;20617;49.476;10.986;2022-12-07T05:35:47;16.33;;;12.52;;
12878;SDS011;20617;49.476;10.986;2022-12-07T05:37:52;17.85;;;13.05;;
12878;SDS011;20617;49.476;10.986;2022-12-07T05:39:57;17.55;;;13.80;;
12878;SDS011;20617;49.476;10.986;2022-12-07T05:42:05;15.48;;;12.77;;
12878;SDS011;20617;49.476;10.986;2022-12-07T05:44:14;17.00;;;14.02;;
12878;SDS011;20617;49.476;10.986;2022-12-07T05:46:18;18.05;;;13.88;;
12878;SDS011;20617;49.476;10.986;2022-12-07T05:48:23;17.30;;;14.10;;
12878;SDS011;20617;49.476;10.986;2022-12-07T05:50:29;17.52;;;13.82;;
12878;SDS011;20617;49.476;10.986;2022-12-07T05:52:34;17.98;;;13.75;;
12878;SDS011;20617;49.476;10.986;2022-12-07T05:54:39;19.30;;;13.77;;
12878;SDS011;20617;49.476;10.986;2022-12-07T05:56:44;20.17;;;13.77;;
12878;SDS011;20617;49.476;10.986;2022-12-07T05:58:56;18.70;;;13.63;;
12878;SDS011;20617;49.476;10.986;2022-12-07T06:01:14;20.98;;;14.10;;
12878;SDS011;20617;49.476;10.986;2022-12-07T06:03:18;20.08;;;15.43;;
12878;SDS011;20617;49.476;10.986;2022-12-07T06:05:23;17.75;;;13.70;;
12878;SDS011;20617;49.476;10.986;2022-12-07T06:07:28;19.75;;;14.98;;
12878;SDS011;20617;49.476;10.986;2022-12-07T06:09:33;19.35;;;14.43;;
12878;SDS011;20617;49.476;10.986;2022-12-07T06:11:39;18.38;;;13.38;;
12878;SDS011;20617;49.476;10.986;2022-12-07T06:13:59;20.63;;;15.30;;
12878;SDS011;20617;49.476;10.986;2022-12-07T06:16:05;18.83;;;15.18;;
12878;SDS011;20617;49.476;10.986;2022-12-07T06:18:10;20.73;;;14.20;;
12878;SDS011;20617;49.476;10.986;2022-12-07T06:20:15;19.45;;;16.42;;
12878;SDS011;20617;49.476;10.986;2022-12-07T06:22:20;19.83;;;15.43;;
12878;SDS011;20617;49.476;10.986;2022-12-07T06:24:25;22.13;;;17.00;;
12878;SDS011;20617;49.476;10.986;2022-12-07T06:26:30;20.67;;;16.02;;
12878;SDS011;20617;49.476;10.986;2022-12-07T06:28:35;19.75;;;14.98;;
12878;SDS011;20617;49.476;10.986;2022-12-07T06:30:43;18.85;;;15.45;;
12878;SDS011;20617;49.476;10.986;2022-12-07T06:32:48;18.83;;;15.77;;
12878;SDS011;20617;49.476;10.986;2022-12-07T06:36:58;19.83;;;15.25;;
12878;SDS011;20617;49.476;10.986;2022-12-07T06:39:03;21.85;;;16.75;;
12878;SDS011;20617;49.476;10.986;2022-12-07T06:41:10;21.58;;;17.10;;
12878;SDS011;20617;49.476;10.986;2022-12-07T06:43:15;20.92;;;15.57;;
12878;SDS011;20617;49.476;10.986;2022-12-07T06:45:20;21.00;;;15.95;;
12878;SDS011;20617;49.476;10.986;2022-12-07T06:47:27;20.92;;;16.33;;
12878;SDS011;20617;49.476;10.986;2022-12-07T06:49:42;20.27;;;15.98;;
12878;SDS011;20617;49.476;10.986;2022-12-07T06:51:47;17.65;;;12.82;;
12878;SDS011;20617;49.476;10.986;2022-12-07T06:53:52;20.80;;;16.15;;
12878;SDS011;20617;49.476;10.986;2022-12-07T06:55:57;18.77;;;14.40;;
12878;SDS011;20617;49.476;10.986;2022-12-07T06:58:02;18.13;;;14.18;;
12878;SDS011;20617;49.476;10.986;2022-12-07T07:00:07;15.93;;;12.65;;
12878;SDS011;20617;49.476;10.986;2022-12-07T07:02:22;15.77;;;12.00;;
12878;SDS011;20617;49.476;10.986;2022-12-07T07:04:29;18.58;;;13.85;;
12878;SDS011;20617;49.476;10.986;2022-12-07T07:06:34;19.08;;;13.50;;
12878;SDS011;20617;49.476;10.986;2022-12-07T07:08:39;18.67;;;14.82;;
12878;SDS011;20617;49.476;10.986;2022-12-07T07:10:45;21.50;;;15.18;;
12878;SDS011;20617;49.476;10.986;2022-12-07T07:12:49;19.15;;;14.88;;
12878;SDS011;20617;49.476;10.986;2022-12-07T07:14:58;21.52;;;15.52;;
12878;SDS011;20617;49.476;10.986;2022-12-07T07:17:03;18.58;;;14.50;;
12878;SDS011;20617;49.476;10.986;2022-12-07T07:19:08;17.48;;;12.85;;
12878;SDS011;20617;49.476;10.986;2022-12-07T07:21:15;18.67;;;14.43;;
12878;SDS011;20617;49.476;10.986;2022-12-07T07:23:20;19.42;;;14.20;;
12878;SDS011;20617;49.476;10.986;2022-12-07T07:27:30;17.85;;;14.13;;
12878;SDS011;20617;49.476;10.986;2022-12-07T07:29:36;19.38;;;14.48;;
12878;SDS011;20617;49.476;10.986;2022-12-07T07:31:41;18.73;;;14.30;;
12878;SDS011;20617;49.476;10.986;2022-12-07T07:33:47;20.90;;;15.35;;
12878;SDS011;20617;49.476;10.986;2022-12-07T07:35:52;19.27;;;15.50;;
12878;SDS011;20617;49.476;10.986;2022-12-07T07:38:00;22.83;;;16.85;;
12878;SDS011;20617;49.476;10.986;2022-12-07T07:40:08;20.10;;;14.55;;
12878;SDS011;20617;49.476;10.986;2022-12-07T07:42:14;20.60;;;15.95;;
12878;SDS011;20617;49.476;10.986;2022-12-07T07:44:20;21.80;;;16.10;;
12878;SDS011;20617;49.476;10.986;2022-12-07T07:46:32;20.38;;;14.50;;
12878;SDS011;20617;49.476;10.986;2022-12-07T07:48:37;20.60;;;16.65;;
12878;SDS011;20617;49.476;10.986;2022-12-07T07:50:42;24.45;;;16.38;;
12878;SDS011;20617;49.476;10.986;2022-12-07T07:52:46;22.52;;;17.05;;
12878;SDS011;20617;49.476;10.986;2022-12-07T07:54:57;21.02;;;16.42;;
12878;SDS011;20617;49.476;10.986;2022-12-07T07:57:01;22.38;;;17.13;;
12878;SDS011;20617;49.476;10.986;2022-12-07T07:59:06;23.98;;;17.95;;
12878;SDS011;20617;49.476;10.986;2022-12-07T08:01:11;19.77;;;15.68;;
12878;SDS011;20617;49.476;10.986;2022-12-07T08:03:18;22.70;;;16.58;;
12878;SDS011;20617;49.476;10.986;2022-12-07T08:05:22;22.88;;;17.02;;
12878;SDS011;20617;49.476;10.986;2022-12-07T08:07:27;21.45;;;16.27;;
12878;SDS011;20617;49.476;10.986;2022-12-07T08:09:32;20.90;;;16.48;;
12878;SDS011;20617;49.476;10.986;2022-12-07T08:11:40;23.55;;;17.63;;
12878;SDS011;20617;49.476;10.986;2022-12-07T08:13:45;23.27;;;15.90;;
12878;SDS011;20617;49.476;10.986;2022-12-07T08:15:50;22.45;;;16.10;;
12878;SDS011;20617;49.476;10.986;2022-12-07T08:17:55;22.48;;;15.02;;
12878;SDS011;20617;49.476;10.986;2022-12-07T08:20:00;25.58;;;17.17;;
12878;SDS011;20617;49.476;10.986;2022-12-07T08:22:06;22.25;;;16.20;;
12878;SDS011;20617;49.476;10.986;2022-12-07T08:26:16;22.10;;;15.70;;
12878;SDS011;20617;49.476;10.986;2022-12-07T08:28:23;21.75;;;16.20;;
12878;SDS011;20617;49.476;10.986;2022-12-07T08:30:28;21.08;;;13.70;;
12878;SDS011;20617;49.476;10.986;2022-12-07T08:32:34;21.63;;;14.52;;
12878;SDS011;20617;49.476;10.986;2022-12-07T08:34:38;20.30;;;12.93;;
12878;SDS011;20617;49.476;10.986;2022-12-07T08:36:43;20.88;;;13.35;;
12878;SDS011;20617;49.476;10.986;2022-12-07T08:38:51;19.60;;;14.57;;
12878;SDS011;20617;49.476;10.986;2022-12-07T08:41:16;21.00;;;13.95;;
12878;SDS011;20617;49.476;10.986;2022-12-07T08:43:24;18.77;;;12.80;;
12878;SDS011;20617;49.476;10.986;2022-12-07T08:45:29;17.10;;;13.30;;
12878;SDS011;20617;49.476;10.986;2022-12-07T08:47:37;17.25;;;12.75;;
12878;SDS011;20617;49.476;10.986;2022-12-07T08:49:45;18.98;;;13.43;;
12878;SDS011;20617;49.476;10.986;2022-12-07T08:51:53;22.77;;;13.77;;
12878;SDS011;20617;49.476;10.986;2022-12-07T08:54:00;17.73;;;12.50;;
12878;SDS011;20617;49.476;10.986;2022-12-07T08:56:08;18.70;;;13.93;;
12878;SDS011;20617;49.476;10.986;2022-12-07T08:58:13;17.75;;;12.82;;
12878;SDS011;20617;49.476;10.986;2022-12-07T09:00:21;18.10;;;14.43;;
12878;SDS011;20617;49.476;10.986;2022-12-07T09:02:27;21.40;;;13.50;;
12878;SDS011;20617;49.476;10.986;2022-12-07T09:04:32;16.92;;;13.38;;
12878;SDS011;20617;49.476;10.986;2022-12-07T09:06:37;18.98;;;13.30;;
12878;SDS011;20617;49.476;10.986;2022-12-07T09:08:43;21.48;;;13.85;;
12878;SDS011;20617;49.476;10.986;2022-12-07T09:10:51;18.83;;;13.10;;
12878;SDS011;20617;49.476;10.986;2022-12-07T09:12:56;22.13;;;13.93;;
12878;SDS011;20617;49.476;10.986;2022-12-07T09:15:02;21.23;;;14.43;;
12878;SDS011;20617;49.476;10.986;2022-12-07T09:17:11;19.45;;;12.93;;
12878;SDS011;20617;49.476;10.986;2022-12-07T09:19:17;19.17;;;13.57;;
12878;SDS011;20617;49.476;10.986;2022-12-07T09:21:22;19.55;;;13.07;;
12878;SDS011;20617;49.476;10.986;2022-12-07T09:23:26;16.70;;;12.45;;
12878;SDS011;20617;49.476;10.986;2022-12-07T09:25:31;17.95;;;12.65;;
12878;SDS011;20617;49.476;10.986;2022-12-07T09:27:36;16.73;;;11.85;;
12878;SDS011;20617;49.476;10.986;2022-12-07T09:31:46;16.83;;;12.25;;
12878;SDS011;20617;49.476;10.986;2022-12-07T09:33:57;20.95;;;13.43;;
12878;SDS011;20617;49.476;10.986;2022-12-07T09:36:03;15.93;;;11.43;;
12878;SDS011;20617;49.476;10.986;2022-12-07T09:38:08;18.83;;;11.85;;
12878;SDS011;20617;49.476;10.986;2022-12-07T09:40:13;18.63;;;11.77;;
12878;SDS011;20617;49.476;10.986;2022-12-07T09:42:24;18.63;;;11.10;;
12878;SDS011;20617;49.476;10.986;2022-12-07T09:44:39;17.70;;;12.57;;
12878;SDS011;20617;49.476;10.986;2022-12-07T09:46:44;15.15;;;11.98;;
12878;SDS011;20617;49.476;10.986;2022-12-07T09:48:51;15.07;;;11.60;;
12878;SDS011;20617;49.476;10.986;2022-12-07T09:50:59;18.27;;;12.43;;
12878;SDS011;20617;49.476;10.986;2022-12-07T09:53:06;14.60;;;10.85;;
12878;SDS011;20617;49.476;10.986;2022-12-07T09:55:16;15.77;;;11.30;;
12878;SDS011;20617;49.476;10.986;2022-12-07T09:57:28;15.30;;;11.70;;
12878;SDS011;20617;49.476;10.986;2022-12-07T09:59:36;14.02;;;9.93;;
12878;SDS011;20617;49.476;10.986;2022-12-07T10:01:42;15.35;;;11.63;;
12878;SDS011;20617;49.476;10.986;2022-12-07T10:03:49;14.85;;;11.13;;
12878;SDS011;20617;49.476;10.986;2022-12-07T10:05:56;14.98;;;11.45;;
12878;SDS011;20617;49.476;10.986;2022-12-07T10:08:04;15.90;;;12.27;;
12878;SDS011;20617;49.476;10.986;2022-12-07T10:10:13;14.73;;;10.40;;
12878;SDS011;20617;49.476;10.986;2022-12-07T10:12:19;15.45;;;11.10;;
12878;SDS011;20617;49.476;10.986;2022-12-07T10:14:24;24.25;;;12.13;;
12878;SDS011;20617;49.476;10.986;2022-12-07T10:16:52;16.20;;;12.20;;
12878;SDS011;20617;49.476;10.986;2022-12-07T10:18:57;17.45;;;11.35;;
12878;SDS011;20617;49.476;10.986;2022-12-07T10:21:26;15.85;;;11.38;;
12878;SDS011;20617;49.476;10.986;2022-12-07T10:23:31;17.00;;;11.23;;
12878;SDS011;20617;49.476;10.986;2022-12-07T10:25:36;14.38;;;10.38;;
12878;SDS011;20617;49.476;10.986;2022-12-07T10:27:42;13.55;;;11.23;;
12878;SDS011;20617;49.476;10.986;2022-12-07T10:29:47;15.35;;;11.70;;
12878;SDS011;20617;49.476;10.986;2022-12-07T10:31:54;14.52;;;10.95;;
12878;SDS011;20617;49.476;10.986;2022-12-07T10:34:01;14.65;;;11.45;;
12878;SDS011;20617;49.476;10.986;2022-12-07T10:36:15;15.50;;;11.38;;
12878;SDS011;20617;49.476;10.986;2022-12-07T10:38:26;13.90;;;10.05;;
12878;SDS011;20617;49.476;10.986;2022-12-07T10:40:35;13.90;;;11.00;;
12878;SDS011;20617;49.476;10.986;2022-12-07T10:42:47;14.10;;;10.73;;
12878;SDS011;20617;49.476;10.986;2022-12-07T10:45:07;14.85;;;11.45;;
12878;SDS011;20617;49.476;10.986;2022-12-07T10:47:29;15.10;;;10.40;;
12878;SDS011;20617;49.476;10.986;2022-12-07T10:49:52;13.30;;;10.60;;
12878;SDS011;20617;49.476;10.986;2022-12-07T10:52:15;13.48;;;10.70;;
12878;SDS011;20617;49.476;10.986;2022-12-07T10:54:29;12.65;;;10.27;;
12878;SDS011;20617;49.476;10.986;2022-12-07T10:56:55;15.40;;;10.32;;
12878;SDS011;20617;49.476;10.986;2022-12-07T10:59:16;13.75;;;11.02;;
12878;SDS011;20617;49.476;10.986;2022-12-07T11:01:33;13.40;;;10.68;;
12878;SDS011;20617;49.476;10.986;2022-12-07T11:03:52;15.13;;;11.80;;
12878;SDS011;20617;49.476;10.986;2022-12-07T11:06:10;14.27;;;11.10;;
12878;SDS011;20617;49.476;10.986;2022-12-07T11:08:25;14.48;;;10.98;;
12878;SDS011;20617;49.476;10.986;2022-12-07T11:10:47;14.57;;;11.70;;
12878;SDS011;20617;49.476;10.986;2022-12-07T11:13:03;14.18;;;10.32;;
12878;SDS011;20617;49.476;10.986;2022-12-07T11:15:28;13.77;;;10.77;;
12878;SDS011;20617;49.476;10.986;2022-12-07T11:17:45;14.82;;;11.27;;
12878;SDS011;20617;49.476;10.986;2022-12-07T11:20:01;13.35;;;10.40;;
12878;SDS011;20617;49.476;10.986;2022-12-07T11:22:12;15.10;;;10.73;;
12878;SDS011;20617;49.476;10.986;2022-12-07T11:24:23;14.23;;;11.13;;
12878;SDS011;20617;49.476;10.986;2022-12-07T11:26:38;13.82;;;11.73;;
12878;SDS011;20617;49.476;10.986;2022-12-07T11:28:59;14.75;;;10.43;;
12878;SDS011;20617;49.476;10.986;2022-12-07T11:31:17;13.82;;;11.48;;
12878;SDS011;20617;49.476;10.986;2022-12-07T11:33:32;15.73;;;12.07;;
12878;SDS011;20617;49.476;10.986;2022-12-07T11:35:52;14.25;;;11.52;;
12878;SDS011;20617;49.476;10.986;2022-12-07T11:38:08;18.45;;;11.52;;
12878;SDS011;20617;49.476;10.986;2022-12-07T11:40:17;16.38;;;11.73;;
12878;SDS011;20617;49.476;10.986;2022-12-07T11:42:33;14.77;;;11.85;;
12878;SDS011;20617;49.476;10.986;2022-12-07T11:44:44;15.55;;;11.77;;
12878;SDS011;20617;49.476;10.986;2022-12-07T11:46:58;14.43;;;11.10;;
12878;SDS011;20617;49.476;10.986;2022-12-07T11:49:08;15.75;;;11.90;;
12878;SDS011;20617;49.476;10.986;2022-12-07T11:51:17;15.88;;;11.38;;
12878;SDS011;20617;49.476;10.986;2022-12-07T11:53:33;15.00;;;11.30;;
12878;SDS011;20617;49.476;10.986;2022-12-07T11:55:43;15.13;;;11.23;;
12878;SDS011;20617;49.476;10.986;2022-12-07T11:57:58;14.30;;;11.25;;
12878;SDS011;20617;49.476;10.986;2022-12-07T12:00:12;14.70;;;11.32;;
12878;SDS011;20617;49.476;10.986;2022-12-07T12:02:20;15.23;;;10.98;;
12878;SDS011;20617;49.476;10.986;2022-12-07T12:04:32;15.43;;;11.75;;
12878;SDS011;20617;49.476;10.986;2022-12-07T12:06:48;14.23;;;11.25;;
12878;SDS011;20617;49.476;10.986;2022-12-07T12:08:53;15.95;;;11.73;;
12878;SDS011;20617;49.476;10.986;2022-12-07T12:11:28;14.25;;;11.55;;
12878;SDS011;20617;49.476;10.986;2022-12-07T12:13:53;15.35;;;11.05;;
12878;SDS011;20617;49.476;10.986;2022-12-07T12:16:40;16.33;;;11.55;;
12878;SDS011;20617;49.476;10.986;2022-12-07T12:19:02;16.60;;;11.25;;
12878;SDS011;20617;49.476;10.986;2022-12-07T12:21:19;11.63;;;10.30;;
12878;SDS011;20617;49.476;10.986;2022-12-07T12:23:34;14.20;;;11.00;;
12878;SDS011;20617;49.476;10.986;2022-12-07T12:25:43;11.68;;;8.82;;
12878;SDS011;20617;49.476;10.986;2022-12-07T12:27:51;10.95;;;9.30;;
12878;SDS011;20617;49.476;10.986;2022-12-07T12:30:03;19.17;;;10.40;;
12878;SDS011;20617;49.476;10.986;2022-12-07T12:32:13;13.13;;;10.52;;
12878;SDS011;20617;49.476;10.986;2022-12-07T12:34:31;13.43;;;10.77;;
12878;SDS011;20617;49.476;10.986;2022-12-07T12:36:44;17.65;;;10.85;;
12878;SDS011;20617;49.476;10.986;2022-12-07T12:39:08;12.25;;;10.10;;